Weather reports worldwide

Advertisment
Bielsa, Spain (8103): temperature & dewpoint: 10.01.2018 20:00:00 - 16.01.2018 20:00:00 (CET)Bielsa, Spain (8103): wind speed & gusts: 10.01.2018 20:00:00 - 16.01.2018 20:00:00 (CET)Bielsa, Spain (8103): wind direction: 10.01.2018 20:00:00 - 16.01.2018 20:00:00 (CET)Bielsa, Spain (8103): visibility: 10.01.2018 20:00:00 - 16.01.2018 20:00:00 (CET)Bielsa, Spain (8103): sunshine duration: 10.01.2018 20:00:00 - 16.01.2018 20:00:00 (CET)Bielsa, Spain (8103): precipitation: 10.01.2018 20:00:00 - 16.01.2018 20:00:00 (CET)
Date & Time tt [°C] td [°C] ff [km/h] ff [kn] fx [km/h] fx [kn] dd vv [km] sd [min] rr [mm]
16.01.2018 20:00:00 2,1 1,4 2 1 13 7 NW 20 0 0,0
16.01.2018 19:00:00 2,8 1,9 3 1 14 8 ENE 20 0 -
16.01.2018 18:00:00 4,4 2,6 2 1 13 7 NW 20 0 0,0
16.01.2018 17:00:00 6,4 3,6 3 2 13 7 NW 20 0 0,0
16.01.2018 16:00:00 7,7 3,9 3 2 16 9 NNW 20 0 0,0
16.01.2018 15:00:00 9,8 3,8 5 3 17 9 ESE 20 12 0,0
16.01.2018 14:00:00 12,9 4,9 5 3 16 9 SSE 20 60 0,0
16.01.2018 13:00:00 11,3 3,4 8 4 21 12 ESE 20 60 -
16.01.2018 12:00:00 7,7 1,6 9 5 19 11 ESE 20 60 0,0
16.01.2018 11:00:00 3,4 3,1 1 1 8 4 S 20 26 0,0
16.01.2018 10:00:00 0,3 0,2 3 2 14 8 S 20 3 0,0
16.01.2018 09:00:00 -0,7 -0,8 3 2 14 8 E 20 0 0,0
16.01.2018 08:00:00 -1,5 -1,6 2 1 14 8 W 20 0 0,0
16.01.2018 07:00:00 -1,6 -1,7 2 1 11 6 SSE 20 0 -
16.01.2018 06:00:00 -2,1 -2,2 2 1 12 7 W 20 0 0,0
16.01.2018 05:00:00 -2,0 -2,1 3 2 14 8 E 20 0 0,0
16.01.2018 04:00:00 -2,0 -2,0 3 2 12 6 WNW 20 0 0,0
16.01.2018 03:00:00 -2,0 -2,1 2 1 14 8 WNW 20 0 0,0
16.01.2018 02:00:00 -1,8 -1,9 2 1 14 8 NW 20 0 0,0
16.01.2018 01:00:00 -1,3 -1,4 4 2 13 7 NW 20 0 -
16.01.2018 00:00:00 -1,2 -1,3 4 2 14 8 NW 20 0 0,0
15.01.2018 23:00:00 -0,9 -1,2 2 1 14 7 NW 20 0 0,0
15.01.2018 22:00:00 -0,5 -0,9 2 1 5 3 ESE 20 0 0,0
15.01.2018 21:00:00 0,3 -0,4 0 0 8 4 N 20 0 0,0
15.01.2018 20:00:00 1,0 0,0 3 1 12 6 NNW 20 0 0,0
15.01.2018 19:00:00 2,3 0,8 2 1 8 4 W 20 0 -
15.01.2018 18:00:00 2,8 0,9 3 1 6 3 NW 20 0 0,0
15.01.2018 17:00:00 4,7 1,4 2 1 14 8 W 20 0 0,0
15.01.2018 16:00:00 5,9 -0,4 5 3 19 10 SE 20 0 0,0
15.01.2018 15:00:00 6,6 -0,6 6 4 20 11 ESE 20 3 0,0
15.01.2018 14:00:00 6,6 0,3 5 3 15 8 S 20 37 0,0
15.01.2018 13:00:00 5,8 0,4 3 1 13 7 WNW 20 60 -
15.01.2018 12:00:00 3,6 0,3 1 1 6 3 WNW 20 60 0,0
15.01.2018 11:00:00 1,3 -0,6 4 2 14 8 WNW 20 60 0,0
15.01.2018 10:00:00 -2,2 -2,7 3 1 12 7 NE 20 3 0,0
15.01.2018 09:00:00 -2,8 -3,6 4 2 17 9 WNW 20 0 0,0
15.01.2018 08:00:00 -2,4 -3,2 4 2 15 8 WNW 20 0 0,0
15.01.2018 07:00:00 -2,6 -3,0 1 1 12 6 NW 20 0 -
15.01.2018 06:00:00 -2,2 -2,5 3 1 11 6 WNW 20 0 0,0
15.01.2018 05:00:00 -1,9 -2,4 2 1 15 8 NW 20 0 0,0
15.01.2018 04:00:00 -1,6 -1,7 4 2 14 8 NW 20 0 0,0
15.01.2018 03:00:00 -1,8 -1,9 1 1 14 8 ESE 20 0 0,0
15.01.2018 02:00:00 -1,2 -1,3 5 3 14 7 NNW 20 0 0,0
15.01.2018 01:00:00 -1,4 -1,5 3 2 14 7 NW 20 0 -
15.01.2018 00:00:00 -1,2 -1,3 1 1 4 2 E 20 0 0,0
14.01.2018 23:00:00 -0,2 -0,3 1 1 14 8 NNW 20 0 0,0
14.01.2018 22:00:00 0,5 0,2 2 1 14 8 N 20 0 0,0
14.01.2018 21:00:00 0,6 0,3 2 1 13 7 NE 20 0 0,0
14.01.2018 20:00:00 1,0 0,7 2 1 8 4 WNW 20 0 0,0
14.01.2018 19:00:00 1,7 1,3 1 1 13 7 NW 20 0 -
14.01.2018 18:00:00 2,1 1,4 0 0 12 6 N 20 0 0,0
14.01.2018 17:00:00 2,7 1,1 1 1 14 8 E 20 0 0,0
14.01.2018 16:00:00 3,6 1,2 6 3 16 8 ESE 20 0 0,0
14.01.2018 15:00:00 4,0 1,4 7 4 18 10 ESE 20 8 0,0
14.01.2018 14:00:00 4,4 1,8 6 4 16 9 ESE 20 31 0,0
14.01.2018 13:00:00 - - - - - - - - - -
14.01.2018 12:00:00 2,8 1,2 2 1 4 2 WNW 20 0 0,0
14.01.2018 11:00:00 1,8 0,8 1 1 13 7 ENE 20 0 0,2
14.01.2018 10:00:00 0,5 0,2 2 1 13 7 SE 18 0 0,2
14.01.2018 09:00:00 -0,9 -1,0 1 1 14 7 NW 15 0 0,2
14.01.2018 08:00:00 -0,6 -0,9 0 0 13 7 N 13 0 0,2
14.01.2018 07:00:00 -0,2 -0,5 1 1 14 8 NNW 14 0 -
14.01.2018 06:00:00 0,2 -0,1 1 1 3 2 N 12 0 0,6
14.01.2018 05:00:00 0,3 -0,3 0 0 2 1 N 2,8 0 0,2
14.01.2018 04:00:00 0,3 -0,3 0 0 13 7 N 3,0 0 0,2
14.01.2018 03:00:00 0,4 -0,2 1 1 14 8 E 2,0 0 0,6
14.01.2018 02:00:00 0,5 -0,3 1 1 5 3 NW 1,5 0 0,6
14.01.2018 01:00:00 0,7 -0,6 2 1 16 9 NW 1,7 0 -
14.01.2018 00:00:00 1,1 -1,8 3 2 22 12 NNW 20 0 0,0
13.01.2018 23:00:00 1,6 -2,0 12 7 23 12 N 20 0 0,0
13.01.2018 22:00:00 0,7 -2,0 4 2 18 10 NNW 20 0 0,0
13.01.2018 21:00:00 0,5 -1,7 2 1 8 4 W 20 0 0,0
13.01.2018 20:00:00 1,1 -2,1 4 2 18 10 NW 20 0 0,0
13.01.2018 19:00:00 1,5 -2,1 5 3 9 5 NW 20 0 -
13.01.2018 18:00:00 3,1 -2,8 2 1 21 11 S 20 0 0,0
13.01.2018 17:00:00 4,2 -3,5 4 2 16 9 E 20 0 0,0
13.01.2018 16:00:00 5,1 -4,2 5 3 19 11 SSE 20 0 0,0
13.01.2018 15:00:00 5,6 -5,1 5 3 22 12 ESE 20 0 0,0
13.01.2018 14:00:00 7,0 -5,6 4 2 11 6 ESE 20 28 0,0
13.01.2018 13:00:00 5,3 -5,3 2 1 19 11 SSW 20 18 -
13.01.2018 12:00:00 5,0 -5,9 3 2 11 6 ESE 20 60 0,0
13.01.2018 11:00:00 1,9 -4,8 3 1 16 9 WNW 20 46 0,0
13.01.2018 10:00:00 -1,1 -4,3 3 2 16 8 WNW 20 0 0,0
13.01.2018 09:00:00 -2,7 -5,2 4 2 16 9 NW 20 0 0,0
13.01.2018 08:00:00 -3,0 -5,5 4 2 19 10 WNW 20 0 0,0
13.01.2018 07:00:00 -2,4 -5,7 2 1 21 11 NW 20 0 -
13.01.2018 06:00:00 -2,7 -5,7 7 4 19 10 NW 20 0 0,0
13.01.2018 05:00:00 -3,5 -6,0 5 3 15 8 NNW 20 0 0,0
13.01.2018 04:00:00 -3,7 -5,8 4 2 17 9 W 20 0 0,0
13.01.2018 03:00:00 -3,0 -5,8 4 2 16 9 NW 20 0 0,0
13.01.2018 02:00:00 -2,7 -5,7 6 3 15 8 NW 20 0 0,0
13.01.2018 01:00:00 -2,9 -5,4 4 2 16 9 WNW 20 0 -
13.01.2018 00:00:00 -2,9 -5,2 5 3 13 7 NW 20 0 0,0
12.01.2018 23:00:00 -2,7 -5,3 4 2 13 7 WNW 20 0 0,0
12.01.2018 22:00:00 -2,5 -4,8 5 3 14 7 WNW 20 0 0,0
12.01.2018 21:00:00 -1,9 -4,5 4 2 13 7 WNW 20 0 0,0
12.01.2018 20:00:00 -1,4 -4,2 3 1 15 8 NNW 20 0 0,0
12.01.2018 19:00:00 0,1 -4,3 6 3 14 8 NW 20 0 -
12.01.2018 18:00:00 0,7 -4,1 2 1 18 10 NNW 20 0 0,0
12.01.2018 17:00:00 2,3 -4,9 11 6 23 13 NW 20 0 0,0
12.01.2018 16:00:00 4,0 -5,7 10 5 22 12 NW 20 0 0,0
12.01.2018 15:00:00 4,9 -6,9 9 5 20 11 WNW 20 6 0,0
12.01.2018 14:00:00 7,6 -5,4 6 3 26 14 WNW 20 60 0,0
12.01.2018 13:00:00 7,8 -7,4 12 6 36 19 WNW 20 60 -
12.01.2018 12:00:00 7,9 -7,7 12 6 32 17 WNW 20 60 0,0
12.01.2018 11:00:00 6,2 -7,7 12 6 32 18 W 20 60 0,0
12.01.2018 10:00:00 -2,2 -4,4 3 2 8 5 NNW 20 3 0,0
12.01.2018 09:00:00 -2,7 -5,3 2 1 14 8 N 20 0 0,0
12.01.2018 08:00:00 -2,8 -5,3 2 1 14 8 N 20 0 0,0
12.01.2018 07:00:00 -1,1 -5,8 2 1 26 14 SSE 20 0 -
12.01.2018 06:00:00 -0,3 -6,0 9 5 32 17 NW 20 0 0,0
12.01.2018 05:00:00 0,9 -6,8 11 6 28 15 NNW 20 0 0,0
12.01.2018 04:00:00 1,0 -6,5 14 8 30 16 NNW 20 0 0,0
12.01.2018 03:00:00 -1,9 -4,2 2 1 17 9 ESE 20 0 0,0
12.01.2018 02:00:00 -1,0 -4,0 4 2 27 15 NNW 20 0 0,0
12.01.2018 01:00:00 1,5 -4,7 10 6 31 17 NNW 20 0 -
12.01.2018 00:00:00 2,2 -4,7 13 7 29 15 NNW 20 0 0,0
11.01.2018 23:00:00 2,2 -4,7 12 7 29 16 NNW 20 0 0,0
11.01.2018 22:00:00 2,5 -4,4 14 8 28 15 NNW 20 0 0,0
11.01.2018 21:00:00 2,6 -4,3 9 5 25 13 NNW 20 0 0,0
11.01.2018 20:00:00 2,8 -3,3 12 6 28 15 NNW 20 0 0,0
11.01.2018 19:00:00 3,2 -3,8 8 4 27 14 NW 20 0 -
11.01.2018 18:00:00 3,7 -3,8 11 6 31 17 N 20 0 0,0
11.01.2018 17:00:00 4,3 -3,7 11 6 30 16 WNW 20 0 0,0
11.01.2018 16:00:00 4,2 -2,0 8 4 22 12 NW 20 0 0,0
11.01.2018 15:00:00 4,8 -3,0 9 5 25 13 WNW 20 3 0,0
11.01.2018 14:00:00 5,1 -2,7 10 6 25 13 WNW 20 48 0,0
11.01.2018 13:00:00 5,7 -1,2 7 4 27 14 W 20 60 -
11.01.2018 12:00:00 5,1 0,3 4 2 12 7 WNW 20 60 0,0
11.01.2018 11:00:00 3,1 1,0 2 1 14 8 S 20 60 0,0
11.01.2018 10:00:00 -1,1 -1,5 2 1 13 7 E 20 3 0,0
11.01.2018 09:00:00 -1,5 -1,8 3 2 13 7 NW 20 0 0,0
11.01.2018 08:00:00 -2,5 -2,6 3 2 13 7 NNW 20 0 0,0
11.01.2018 07:00:00 -2,1 -2,2 1 1 14 8 ESE 20 0 -
11.01.2018 06:00:00 -1,6 -1,6 4 2 15 8 NW 20 0 0,0
11.01.2018 05:00:00 -1,4 -1,4 3 1 5 3 N 20 0 0,0
11.01.2018 04:00:00 -0,9 -1,0 2 1 6 3 NW 20 0 0,0
11.01.2018 03:00:00 -0,7 -0,8 1 1 14 8 E 20 0 0,0
11.01.2018 02:00:00 0,2 0,1 4 2 14 8 NNW 20 0 0,0
11.01.2018 01:00:00 - - - - - - - - - -
11.01.2018 00:00:00 1,0 0,6 2 1 13 7 W 20 0 1,2
10.01.2018 23:00:00 1,8 1,4 1 1 14 8 NNW 20 0 0,0
10.01.2018 22:00:00 2,0 1,4 1 1 13 7 WNW 20 0 0,2
10.01.2018 21:00:00 2,3 1,6 2 1 13 7 N 20 0 0,0
10.01.2018 20:00:00 3,0 1,2 4 2 27 15 SSE 20 0 0,0

tt = temperature
td = dewpoint
ff = wind speed
fx = gusts
dd = wind direction
vv = visibility
sd = sunshine duration
rr = precipitation

Next stations